createdAt,value
2022-10-18T00:00:49.951Z,17.10
2022-10-18T00:03:38.939Z,17.10
2022-10-18T00:06:27.279Z,17.10
2022-10-18T00:09:15.461Z,17.10
2022-10-18T00:12:03.583Z,17.10
2022-10-18T00:14:53.123Z,17.10
2022-10-18T00:17:41.455Z,17.10
2022-10-18T00:20:29.553Z,17.10
2022-10-18T00:23:17.629Z,17.00
2022-10-18T00:26:07.672Z,17.10
2022-10-18T00:28:58.070Z,17.10
2022-10-18T00:31:47.495Z,17.10
2022-10-18T00:34:35.729Z,17.10
2022-10-18T00:37:23.737Z,17.10
2022-10-18T00:40:12.328Z,17.10
2022-10-18T00:43:00.332Z,17.10
2022-10-18T00:45:48.414Z,17.10
2022-10-18T00:48:37.809Z,17.10
2022-10-18T00:51:29.551Z,17.10
2022-10-18T00:53:58.075Z,17.10
2022-10-18T00:56:26.572Z,17.10
2022-10-18T00:58:55.230Z,17.10
2022-10-18T01:01:25.978Z,17.10
2022-10-18T01:03:58.453Z,17.10
2022-10-18T01:06:28.252Z,17.10
2022-10-18T01:09:07.336Z,17.10
2022-10-18T01:11:49.955Z,17.10
2022-10-18T01:14:31.232Z,17.10
2022-10-18T01:17:03.856Z,17.10
2022-10-18T01:20:02.880Z,17.10
2022-10-18T01:22:37.557Z,17.10
2022-10-18T01:25:20.223Z,17.10
2022-10-18T01:27:56.437Z,17.10
2022-10-18T01:30:37.402Z,17.10
2022-10-18T01:33:14.309Z,17.10
2022-10-18T01:35:47.534Z,17.10
2022-10-18T01:38:18.355Z,17.10
2022-10-18T01:40:49.349Z,17.10
2022-10-18T01:43:18.757Z,17.10
2022-10-18T01:45:48.784Z,17.10
2022-10-18T01:48:18.302Z,17.10
2022-10-18T01:51:06.982Z,17.10
2022-10-18T01:53:35.990Z,17.10
2022-10-18T01:56:35.054Z,17.10
2022-10-18T01:59:19.187Z,17.10
2022-10-18T02:01:59.362Z,17.10
2022-10-18T02:04:38.495Z,17.10
2022-10-18T02:07:11.948Z,17.10
2022-10-18T02:09:52.724Z,17.10
2022-10-18T02:12:22.563Z,17.10
2022-10-18T02:14:51.647Z,17.10
2022-10-18T02:17:22.493Z,17.10
2022-10-18T02:19:54.062Z,17.10
2022-10-18T02:22:23.533Z,17.10
2022-10-18T02:24:55.817Z,17.10
2022-10-18T02:27:24.108Z,17.10
2022-10-18T02:29:53.110Z,17.10
2022-10-18T02:32:31.935Z,17.10
2022-10-18T02:35:03.793Z,17.10
2022-10-18T02:37:35.647Z,17.10
2022-10-18T02:40:05.501Z,17.10
2022-10-18T02:42:37.772Z,17.10
2022-10-18T02:45:07.719Z,17.10
2022-10-18T02:47:37.084Z,17.10
2022-10-18T02:50:05.754Z,17.20
2022-10-18T02:52:33.891Z,17.20
2022-10-18T02:55:02.236Z,17.20
2022-10-18T02:57:31.393Z,17.20
2022-10-18T02:59:59.735Z,17.20
2022-10-18T03:02:28.073Z,17.10
2022-10-18T03:04:57.435Z,17.10
2022-10-18T03:07:25.527Z,17.10
2022-10-18T03:09:53.569Z,17.20
2022-10-18T03:12:21.607Z,17.20
2022-10-18T03:14:49.562Z,17.20
2022-10-18T03:17:17.697Z,17.20
2022-10-18T03:19:45.694Z,17.20
2022-10-18T03:22:15.042Z,17.20
2022-10-18T03:24:43.042Z,17.20
2022-10-18T03:27:11.017Z,17.20
2022-10-18T03:29:39.073Z,17.20
2022-10-18T03:32:07.492Z,17.20
2022-10-18T03:34:35.488Z,17.20
2022-10-18T03:37:05.405Z,17.20
2022-10-18T03:39:34.992Z,17.20
2022-10-18T03:42:02.997Z,17.20
2022-10-18T03:44:31.051Z,17.10
2022-10-18T03:46:59.101Z,17.10
2022-10-18T03:49:27.128Z,17.10
2022-10-18T03:51:55.202Z,17.10
2022-10-18T03:54:23.198Z,17.10
2022-10-18T03:56:52.553Z,17.10
2022-10-18T03:59:21.038Z,17.00
2022-10-18T04:01:49.107Z,17.00
2022-10-18T04:04:17.364Z,17.00
2022-10-18T04:06:45.382Z,17.00
2022-10-18T04:09:13.409Z,17.00
2022-10-18T04:11:41.503Z,17.00
2022-10-18T04:14:10.868Z,17.00
2022-10-18T04:16:57.288Z,17.00
2022-10-18T04:19:25.410Z,17.00
2022-10-18T04:21:53.424Z,17.00
2022-10-18T04:24:21.432Z,17.00
2022-10-18T04:26:49.444Z,17.00
2022-10-18T04:29:18.846Z,17.00
2022-10-18T04:31:47.720Z,17.00
2022-10-18T04:34:15.702Z,17.00
2022-10-18T04:36:43.698Z,17.00
2022-10-18T04:39:11.695Z,17.00
2022-10-18T04:41:39.678Z,17.00
2022-10-18T04:44:07.744Z,16.90
2022-10-18T04:46:37.151Z,16.90
2022-10-18T04:49:07.445Z,17.00
2022-10-18T04:51:55.690Z,16.90
2022-10-18T04:54:26.479Z,16.90
2022-10-18T04:56:56.729Z,16.90
2022-10-18T04:59:24.820Z,16.90
2022-10-18T05:01:54.362Z,16.90
2022-10-18T05:04:22.509Z,16.90
2022-10-18T05:06:50.745Z,16.90
2022-10-18T05:09:18.808Z,16.90
2022-10-18T05:11:46.860Z,16.90
2022-10-18T05:14:14.856Z,16.90
2022-10-18T05:16:42.917Z,16.90
2022-10-18T05:19:12.396Z,16.90
2022-10-18T05:21:40.494Z,16.90
2022-10-18T05:24:08.781Z,16.90
2022-10-18T05:26:36.799Z,16.80
2022-10-18T05:29:04.928Z,16.80
2022-10-18T05:31:33.056Z,16.80
2022-10-18T05:34:01.569Z,16.80
2022-10-18T05:36:31.120Z,16.80
2022-10-18T05:39:02.422Z,16.90
2022-10-18T05:41:33.135Z,16.90
2022-10-18T05:44:04.893Z,16.90
2022-10-18T05:46:33.559Z,16.90
2022-10-18T05:49:01.659Z,16.90
2022-10-18T05:51:48.336Z,16.90
2022-10-18T05:54:16.579Z,16.90
2022-10-18T05:56:44.647Z,16.90
2022-10-18T05:59:12.757Z,16.90
2022-10-18T06:01:42.335Z,16.80
2022-10-18T06:04:11.231Z,16.90
2022-10-18T06:06:40.247Z,16.90
2022-10-18T06:09:09.645Z,16.90
2022-10-18T06:11:37.972Z,16.90
2022-10-18T06:14:06.099Z,16.90
2022-10-18T06:16:34.167Z,16.90
2022-10-18T06:19:02.229Z,16.80
2022-10-18T06:21:30.439Z,16.90
2022-10-18T06:24:00.082Z,16.90
2022-10-18T06:26:29.888Z,16.90
2022-10-18T06:28:58.138Z,16.90
2022-10-18T06:31:26.380Z,16.90
2022-10-18T06:33:54.388Z,16.90
2022-10-18T06:36:23.009Z,16.90
2022-10-18T06:38:51.567Z,16.90
2022-10-18T06:41:20.452Z,16.90
2022-10-18T06:43:50.933Z,16.90
2022-10-18T06:46:18.939Z,16.90
2022-10-18T06:48:47.993Z,16.90
2022-10-18T06:51:16.216Z,16.90
2022-10-18T06:53:53.430Z,16.90
2022-10-18T06:56:32.527Z,16.90
2022-10-18T06:59:01.881Z,16.90
2022-10-18T07:01:30.050Z,16.90
2022-10-18T07:03:58.509Z,16.90
2022-10-18T07:07:01.689Z,17.00
2022-10-18T07:09:29.825Z,17.00
2022-10-18T07:11:57.862Z,16.90
2022-10-18T07:14:29.120Z,16.90
2022-10-18T07:17:00.212Z,16.90
2022-10-18T07:19:28.250Z,16.90
2022-10-18T07:21:56.265Z,16.90
2022-10-18T07:24:24.313Z,17.00
2022-10-18T07:26:52.353Z,17.00
2022-10-18T07:29:20.360Z,17.00
2022-10-18T07:31:50.058Z,17.00
2022-10-18T07:34:18.005Z,17.00
2022-10-18T07:37:00.349Z,17.00
2022-10-18T07:39:28.306Z,17.00
2022-10-18T07:41:56.230Z,17.00
2022-10-18T07:44:24.262Z,17.00
2022-10-18T07:46:53.894Z,17.00
2022-10-18T07:49:22.012Z,17.00
2022-10-18T07:51:50.012Z,17.00
2022-10-18T07:54:18.255Z,17.00
2022-10-18T07:56:47.075Z,17.00
2022-10-18T07:59:15.303Z,17.00
2022-10-18T08:02:16.671Z,17.00
2022-10-18T08:04:44.712Z,17.10
2022-10-18T08:07:12.747Z,17.10
2022-10-18T08:09:40.922Z,17.10
2022-10-18T08:12:08.943Z,17.10
2022-10-18T08:14:36.990Z,17.10
2022-10-18T08:17:04.996Z,17.20
2022-10-18T08:19:34.462Z,17.20
2022-10-18T08:22:02.496Z,17.20
2022-10-18T08:24:30.479Z,17.20
2022-10-18T08:26:58.514Z,17.20
2022-10-18T08:29:30.777Z,17.20
2022-10-18T08:31:59.853Z,17.20
2022-10-18T08:34:27.926Z,17.20
2022-10-18T08:36:57.320Z,17.20
2022-10-18T08:39:25.546Z,17.20
2022-10-18T08:42:24.419Z,17.20
2022-10-18T08:44:53.375Z,17.20
2022-10-18T08:47:23.541Z,17.20
2022-10-18T08:49:55.251Z,17.20
2022-10-18T08:52:31.780Z,17.30
2022-10-18T08:55:03.291Z,17.30
2022-10-18T08:57:32.841Z,17.30
2022-10-18T09:00:02.543Z,17.30
2022-10-18T09:02:42.520Z,17.30
2022-10-18T09:05:22.331Z,17.30
2022-10-18T09:08:10.225Z,17.30
2022-10-18T09:10:45.897Z,17.30
2022-10-18T09:13:38.826Z,17.30
2022-10-18T09:16:11.972Z,17.40
2022-10-18T09:18:57.304Z,17.40
2022-10-18T09:21:37.749Z,17.40
2022-10-18T09:24:13.645Z,17.40
2022-10-18T09:26:45.853Z,17.40
2022-10-18T09:29:49.467Z,17.40
2022-10-18T09:32:29.612Z,17.40
2022-10-18T09:35:00.799Z,17.40
2022-10-18T09:37:31.683Z,17.40
2022-10-18T09:40:07.623Z,17.40
2022-10-18T09:42:40.322Z,17.40
2022-10-18T09:45:21.168Z,17.40
2022-10-18T09:47:57.203Z,17.40
2022-10-18T09:50:27.924Z,17.50
2022-10-18T09:53:03.887Z,17.50
2022-10-18T09:55:39.447Z,17.50
2022-10-18T09:58:11.574Z,17.50
2022-10-18T10:00:47.027Z,17.50
2022-10-18T10:03:15.798Z,17.50
2022-10-18T10:05:44.228Z,17.50
2022-10-18T10:08:12.895Z,17.50
2022-10-18T10:10:46.957Z,17.50
2022-10-18T10:13:18.902Z,17.50
2022-10-18T10:15:52.996Z,17.50
2022-10-18T10:18:23.535Z,17.50
2022-10-18T10:20:54.162Z,17.50
2022-10-18T10:23:25.811Z,17.50
2022-10-18T10:25:57.255Z,17.50
2022-10-18T10:28:29.768Z,17.50
2022-10-18T10:31:19.299Z,17.50
2022-10-18T10:33:48.608Z,17.50
2022-10-18T10:36:21.170Z,17.50
2022-10-18T10:39:05.044Z,17.50
2022-10-18T10:41:35.066Z,17.50
2022-10-18T10:44:04.739Z,17.50
2022-10-18T10:46:37.396Z,17.50
2022-10-18T10:49:39.066Z,17.60
2022-10-18T10:52:08.217Z,17.60
2022-10-18T10:54:51.192Z,17.60
2022-10-18T10:57:24.794Z,17.60
2022-10-18T10:59:55.065Z,17.60
2022-10-18T11:02:27.305Z,17.60
2022-10-18T11:04:56.855Z,17.60
2022-10-18T11:07:28.522Z,17.60
2022-10-18T11:10:00.901Z,17.60
2022-10-18T11:13:02.576Z,17.60
2022-10-18T11:15:36.354Z,17.60
2022-10-18T11:18:14.378Z,17.60
2022-10-18T11:20:45.650Z,17.60
2022-10-18T11:23:15.791Z,17.60
2022-10-18T11:26:03.889Z,17.60
2022-10-18T11:28:53.575Z,17.60
2022-10-18T11:31:54.329Z,17.60
2022-10-18T11:34:41.417Z,17.60
2022-10-18T11:37:28.480Z,17.70
2022-10-18T11:40:10.376Z,17.70
2022-10-18T11:42:46.426Z,17.70
2022-10-18T11:48:06.595Z,17.70
2022-10-18T11:50:43.254Z,17.70
2022-10-18T11:53:19.356Z,17.70
2022-10-18T11:56:02.004Z,17.70
2022-10-18T11:58:49.571Z,17.70
2022-10-18T12:01:28.325Z,17.70
2022-10-18T12:04:04.499Z,17.80
2022-10-18T12:06:36.869Z,17.70
2022-10-18T12:09:15.065Z,17.70
2022-10-18T12:11:55.502Z,17.70
2022-10-18T12:14:28.543Z,17.70
2022-10-18T12:17:35.789Z,17.70
2022-10-18T12:19:53.265Z,17.70
2022-10-18T12:22:24.121Z,17.70
2022-10-18T12:25:01.846Z,17.70
2022-10-18T12:27:37.527Z,17.70
2022-10-18T12:30:12.541Z,17.70
2022-10-18T12:32:56.431Z,17.70
2022-10-18T12:35:37.075Z,17.70
2022-10-18T12:38:18.883Z,17.70
2022-10-18T12:40:50.485Z,17.70
2022-10-18T12:43:22.228Z,17.70
2022-10-18T12:45:53.987Z,17.70
2022-10-18T12:48:35.968Z,17.70
2022-10-18T12:51:08.360Z,17.70
2022-10-18T12:53:37.069Z,17.70
2022-10-18T12:56:41.764Z,17.70
2022-10-18T12:59:49.425Z,17.70
2022-10-18T13:02:28.362Z,17.70
2022-10-18T13:07:43.247Z,17.70
2022-10-18T13:10:38.451Z,17.70
2022-10-18T13:13:40.453Z,17.70
2022-10-18T13:16:22.452Z,17.70
2022-10-18T13:18:54.914Z,17.70
2022-10-18T13:21:34.187Z,17.70
2022-10-18T13:24:20.793Z,17.80
2022-10-18T13:30:09.311Z,17.80
2022-10-18T13:32:49.718Z,17.80
2022-10-18T13:35:47.530Z,17.80
2022-10-18T13:38:47.186Z,17.80
2022-10-18T13:41:18.654Z,17.90
2022-10-18T13:44:09.602Z,17.90
2022-10-18T13:47:20.526Z,17.90
2022-10-18T13:50:17.576Z,17.90
2022-10-18T13:53:32.058Z,17.80
2022-10-18T13:56:24.215Z,17.90
2022-10-18T13:59:14.334Z,17.90
2022-10-18T14:02:06.306Z,17.90
2022-10-18T14:04:43.919Z,17.90
2022-10-18T14:07:13.484Z,17.90
2022-10-18T14:09:52.279Z,17.90
2022-10-18T14:12:31.852Z,17.90
2022-10-18T14:15:06.111Z,17.90
2022-10-18T14:17:40.851Z,17.90
2022-10-18T14:20:19.719Z,17.80
2022-10-18T14:22:52.303Z,17.80
2022-10-18T14:25:23.484Z,17.90
2022-10-18T14:28:10.027Z,17.80
2022-10-18T14:30:53.711Z,17.80
2022-10-18T14:33:52.709Z,17.90
2022-10-18T14:36:26.245Z,17.80
2022-10-18T14:38:56.410Z,17.80
2022-10-18T14:41:26.003Z,17.80
2022-10-18T14:44:17.564Z,17.80
2022-10-18T14:46:47.102Z,17.80
2022-10-18T14:49:17.410Z,17.80
2022-10-18T14:51:49.194Z,17.80
2022-10-18T14:54:19.173Z,17.80
2022-10-18T14:56:47.644Z,17.80
2022-10-18T14:59:21.402Z,17.80
2022-10-18T15:01:55.712Z,17.80
2022-10-18T15:04:27.881Z,17.80
2022-10-18T15:06:57.029Z,17.80
2022-10-18T15:09:25.923Z,17.80
2022-10-18T15:11:57.742Z,17.80
2022-10-18T15:14:29.178Z,17.80
2022-10-18T15:17:00.948Z,17.70
2022-10-18T15:19:34.168Z,17.80
2022-10-18T15:25:16.273Z,17.80
2022-10-18T15:27:47.550Z,17.80
2022-10-18T15:30:21.333Z,17.80
2022-10-18T15:32:51.928Z,17.80
2022-10-18T15:35:26.395Z,17.70
2022-10-18T15:37:56.008Z,17.70
2022-10-18T15:40:42.906Z,17.70
2022-10-18T15:43:39.288Z,17.70
2022-10-18T15:46:31.623Z,17.70
2022-10-18T15:49:47.551Z,17.70
2022-10-18T15:52:37.418Z,17.70
2022-10-18T15:55:39.624Z,17.70
2022-10-18T15:58:13.402Z,17.70
2022-10-18T16:00:43.031Z,17.70
2022-10-18T16:03:12.810Z,17.70
2022-10-18T16:05:41.723Z,17.70
2022-10-18T16:08:23.106Z,17.60
2022-10-18T16:10:51.666Z,17.60
2022-10-18T16:13:19.840Z,17.60
2022-10-18T16:15:48.056Z,17.50
2022-10-18T16:18:19.998Z,17.60
2022-10-18T16:20:49.116Z,17.50
2022-10-18T16:23:19.554Z,17.50
2022-10-18T16:25:48.545Z,17.50
2022-10-18T16:28:18.390Z,17.50
2022-10-18T16:30:51.367Z,17.50
2022-10-18T16:33:21.669Z,17.40
2022-10-18T16:35:50.235Z,17.40
2022-10-18T16:38:25.817Z,17.40
2022-10-18T16:40:54.500Z,17.40
2022-10-18T16:43:25.804Z,17.40
2022-10-18T16:45:55.178Z,17.30
2022-10-18T16:48:25.868Z,17.30
2022-10-18T16:50:55.307Z,17.30
2022-10-18T16:53:24.978Z,17.30
2022-10-18T16:55:55.370Z,17.30
2022-10-18T17:00:57.503Z,17.20
2022-10-18T17:03:27.501Z,17.20
2022-10-18T17:05:56.267Z,17.20
2022-10-18T17:08:26.820Z,17.20
2022-10-18T17:10:58.196Z,17.10
2022-10-18T17:13:27.309Z,17.10
2022-10-18T17:15:55.607Z,17.10
2022-10-18T17:18:27.539Z,17.10
2022-10-18T17:20:56.557Z,17.10
2022-10-18T17:23:24.754Z,17.10
2022-10-18T17:26:05.026Z,17.10
2022-10-18T17:28:38.433Z,17.00
2022-10-18T17:31:08.104Z,17.00
2022-10-18T17:33:37.828Z,17.00
2022-10-18T17:36:06.222Z,17.00
2022-10-18T17:38:34.354Z,16.90
2022-10-18T17:41:07.176Z,16.90
2022-10-18T17:43:37.074Z,16.90
2022-10-18T17:46:05.640Z,16.90
2022-10-18T17:48:33.971Z,16.90
2022-10-18T17:51:07.728Z,16.90
2022-10-18T17:53:38.592Z,16.90
2022-10-18T17:56:07.685Z,16.90
2022-10-18T17:59:05.077Z,16.90
2022-10-18T18:01:33.307Z,16.90
2022-10-18T18:04:02.886Z,16.90
2022-10-18T18:06:34.470Z,16.80
2022-10-18T18:09:06.880Z,16.90
2022-10-18T18:11:35.593Z,16.80
2022-10-18T18:14:08.780Z,16.80
2022-10-18T18:16:38.583Z,16.80
2022-10-18T18:19:10.350Z,16.70
2022-10-18T18:21:41.127Z,16.70
2022-10-18T18:24:10.403Z,16.60
2022-10-18T18:26:39.774Z,16.60
2022-10-18T18:29:08.260Z,16.60
2022-10-18T18:31:40.182Z,16.60
2022-10-18T18:34:10.330Z,16.60
2022-10-18T18:36:40.044Z,16.50
2022-10-18T18:39:08.957Z,16.50
2022-10-18T18:41:38.380Z,16.50
2022-10-18T18:44:07.078Z,16.50
2022-10-18T18:46:38.604Z,16.40
2022-10-18T18:49:07.865Z,16.40
2022-10-18T18:51:38.345Z,16.40
2022-10-18T18:54:08.218Z,16.40
2022-10-18T18:56:36.455Z,16.50
2022-10-18T18:59:05.120Z,16.50
2022-10-18T19:02:05.065Z,16.50
2022-10-18T19:04:34.947Z,16.50
2022-10-18T19:07:03.264Z,16.40
2022-10-18T19:09:32.872Z,16.40
2022-10-18T19:12:00.907Z,16.40
2022-10-18T19:14:29.195Z,16.40
2022-10-18T19:16:59.036Z,16.40
2022-10-18T19:19:28.721Z,16.40
2022-10-18T19:21:58.953Z,16.40
2022-10-18T19:24:30.124Z,16.50
2022-10-18T19:27:01.980Z,16.50
2022-10-18T19:29:31.792Z,16.50
2022-10-18T19:32:02.322Z,16.50
2022-10-18T19:34:32.367Z,16.40
2022-10-18T19:37:00.417Z,16.40
2022-10-18T19:39:30.592Z,16.40
2022-10-18T19:42:03.097Z,16.40
2022-10-18T19:44:33.867Z,16.40
2022-10-18T19:47:02.217Z,16.50
2022-10-18T19:49:33.355Z,16.40
2022-10-18T19:52:01.636Z,16.40
2022-10-18T19:54:29.687Z,16.40
2022-10-18T19:56:59.047Z,16.40
2022-10-18T19:59:27.173Z,16.40
2022-10-18T20:01:55.509Z,16.50
2022-10-18T20:04:23.690Z,16.50
2022-10-18T20:06:51.779Z,16.50
2022-10-18T20:09:21.496Z,16.40
2022-10-18T20:11:49.509Z,16.40
2022-10-18T20:14:18.838Z,16.50
2022-10-18T20:16:46.890Z,16.50
2022-10-18T20:19:15.000Z,16.50
2022-10-18T20:21:42.979Z,16.50
2022-10-18T20:24:12.437Z,16.50
2022-10-18T20:26:40.777Z,16.40
2022-10-18T20:29:08.983Z,16.40
2022-10-18T20:31:39.316Z,16.40
2022-10-18T20:34:11.421Z,16.40
2022-10-18T20:36:40.046Z,16.50
2022-10-18T20:39:08.416Z,16.40
2022-10-18T20:41:40.916Z,16.50
2022-10-18T20:44:13.483Z,16.50
2022-10-18T20:46:43.860Z,16.50
2022-10-18T20:49:15.622Z,16.50
2022-10-18T20:51:43.714Z,16.40
2022-10-18T20:54:12.658Z,16.40
2022-10-18T20:56:40.874Z,16.40
2022-10-18T20:59:10.106Z,16.50
2022-10-18T21:01:39.602Z,16.40
2022-10-18T21:04:11.036Z,16.40
2022-10-18T21:06:41.323Z,16.30
2022-10-18T21:09:11.876Z,16.30
2022-10-18T21:11:41.574Z,16.30
2022-10-18T21:14:12.930Z,16.30
2022-10-18T21:16:41.139Z,16.30
2022-10-18T21:19:13.962Z,16.30
2022-10-18T21:21:43.880Z,16.30
2022-10-18T21:24:12.936Z,16.30
2022-10-18T21:26:41.423Z,16.30
2022-10-18T21:29:10.909Z,16.20
2022-10-18T21:31:59.643Z,16.20
2022-10-18T21:34:29.059Z,16.20
2022-10-18T21:36:57.070Z,16.20
2022-10-18T21:39:25.438Z,16.20
2022-10-18T21:41:53.531Z,16.20
2022-10-18T21:44:21.737Z,16.20
2022-10-18T21:46:49.900Z,16.20
2022-10-18T21:49:18.476Z,16.20
2022-10-18T21:51:47.841Z,16.20
2022-10-18T21:54:17.412Z,16.20
2022-10-18T21:56:45.601Z,16.10
2022-10-18T21:59:14.136Z,16.10
2022-10-18T22:01:43.537Z,16.10
2022-10-18T22:04:19.473Z,16.10
2022-10-18T22:06:49.130Z,16.10
2022-10-18T22:09:17.391Z,16.10
2022-10-18T22:11:47.989Z,16.10
2022-10-18T22:14:16.183Z,16.10
2022-10-18T22:16:44.297Z,16.20
2022-10-18T22:19:12.604Z,16.20
2022-10-18T22:21:40.628Z,16.20
2022-10-18T22:24:10.676Z,16.10
2022-10-18T22:26:41.151Z,16.10
2022-10-18T22:29:11.653Z,16.10
2022-10-18T22:31:41.949Z,16.00
2022-10-18T22:34:13.799Z,16.00
2022-10-18T22:36:42.258Z,16.00
2022-10-18T22:39:13.101Z,16.00
2022-10-18T22:41:41.661Z,16.00
2022-10-18T22:44:12.101Z,16.00
2022-10-18T22:46:40.501Z,16.00
2022-10-18T22:49:08.945Z,16.00
2022-10-18T22:51:36.949Z,16.00
2022-10-18T22:54:05.139Z,16.00
2022-10-18T22:56:34.502Z,16.00
2022-10-18T22:59:02.546Z,16.00
2022-10-18T23:01:30.749Z,16.00
2022-10-18T23:04:01.126Z,16.00
2022-10-18T23:06:30.959Z,16.10
2022-10-18T23:09:00.679Z,16.10
2022-10-18T23:11:30.083Z,16.10
2022-10-18T23:13:59.515Z,16.10
2022-10-18T23:16:29.458Z,16.00
2022-10-18T23:18:58.819Z,16.00
2022-10-18T23:21:28.695Z,16.00
2022-10-18T23:23:57.672Z,16.00
2022-10-18T23:26:27.634Z,16.00
2022-10-18T23:28:56.416Z,16.00
2022-10-18T23:31:27.486Z,16.00
2022-10-18T23:34:00.660Z,16.00
2022-10-18T23:36:29.338Z,15.90
2022-10-18T23:38:57.833Z,15.90
2022-10-18T23:41:26.868Z,15.90
2022-10-18T23:43:55.411Z,15.90
2022-10-18T23:46:25.032Z,15.80
2022-10-18T23:48:53.011Z,15.80
2022-10-18T23:51:21.050Z,15.80
2022-10-18T23:53:49.385Z,15.80
2022-10-18T23:56:17.815Z,15.80
2022-10-18T23:58:46.537Z,15.80
